createdAt,value
2023-07-02T00:00:32.013Z,99566.78
2023-07-02T00:03:01.696Z,99573.72
2023-07-02T00:05:29.534Z,99573.06
2023-07-02T00:07:57.356Z,99574.84
2023-07-02T00:10:25.698Z,99575.63
2023-07-02T00:12:54.907Z,99575.09
2023-07-02T00:15:22.689Z,99580.53
2023-07-02T00:17:50.619Z,99571.50
2023-07-02T00:20:18.607Z,99565.81
2023-07-02T00:22:47.542Z,99565.22
2023-07-02T00:25:16.231Z,99556.16
2023-07-02T00:27:44.117Z,99529.09
2023-07-02T00:30:13.974Z,99530.00
2023-07-02T00:32:41.859Z,99535.41
2023-07-02T00:35:09.928Z,99537.13
2023-07-02T00:37:38.177Z,99529.81
2023-07-02T00:40:07.793Z,99530.22
2023-07-02T00:42:35.560Z,99544.59
2023-07-02T00:45:04.253Z,99545.41
2023-07-02T00:47:36.163Z,99548.06
2023-07-02T00:50:04.757Z,99544.59
2023-07-02T00:52:32.583Z,99539.03
2023-07-02T00:55:00.419Z,99546.59
2023-07-02T00:57:30.891Z,99540.00
2023-07-02T01:00:01.756Z,99541.44
2023-07-02T01:02:30.918Z,99540.59
2023-07-02T01:05:01.835Z,99544.31
2023-07-02T01:07:30.301Z,99538.97
2023-07-02T01:09:58.683Z,99542.69
2023-07-02T01:12:29.500Z,99545.34
2023-07-02T01:15:01.492Z,99542.69
2023-07-02T01:17:42.823Z,99547.41
2023-07-02T01:20:14.386Z,99551.91
2023-07-02T01:22:42.884Z,99551.13
2023-07-02T01:25:10.994Z,99549.25
2023-07-02T01:27:39.703Z,99549.25
2023-07-02T01:30:11.012Z,99543.72
2023-07-02T01:32:40.101Z,99545.81
2023-07-02T01:35:08.933Z,99549.50
2023-07-02T01:37:39.690Z,99553.19
2023-07-02T01:40:09.220Z,99543.56
2023-07-02T01:42:37.710Z,99548.69
2023-07-02T01:45:06.236Z,99537.34
2023-07-02T01:47:34.170Z,99531.38
2023-07-02T01:50:02.043Z,99532.75
2023-07-02T01:52:33.994Z,99541.13
2023-07-02T01:55:05.193Z,99543.34
2023-07-02T01:57:33.143Z,99532.47
2023-07-02T02:00:00.900Z,99535.50
2023-07-02T02:02:28.932Z,99547.34
2023-07-02T02:04:58.090Z,99545.06
2023-07-02T02:07:27.245Z,99542.56
2023-07-02T02:09:55.318Z,99542.91
2023-07-02T02:12:24.540Z,99544.34
2023-07-02T02:14:53.246Z,99544.13
2023-07-02T02:17:21.136Z,99553.53
2023-07-02T02:19:48.930Z,99548.56
2023-07-02T02:22:16.949Z,99542.78
2023-07-02T02:24:44.806Z,99553.00
2023-07-02T02:27:12.534Z,99553.38
2023-07-02T02:29:41.768Z,99543.03
2023-07-02T02:32:10.008Z,99549.38
2023-07-02T02:34:38.152Z,99546.00
2023-07-02T02:37:06.250Z,99545.31
2023-07-02T02:39:34.248Z,99539.31
2023-07-02T02:42:02.386Z,99552.56
2023-07-02T02:44:30.609Z,99544.09
2023-07-02T02:47:00.950Z,99543.66
2023-07-02T02:49:31.118Z,99537.88
2023-07-02T02:51:58.943Z,99543.56
2023-07-02T02:54:26.672Z,99539.63
2023-07-02T02:56:54.533Z,99534.06
2023-07-02T02:59:22.857Z,99533.81
2023-07-02T03:01:52.552Z,99534.41
2023-07-02T03:04:25.970Z,99535.00
2023-07-02T03:06:54.645Z,99531.84
2023-07-02T03:09:22.444Z,99528.50
2023-07-02T03:11:50.537Z,99535.00
2023-07-02T03:14:18.842Z,99533.16
2023-07-02T03:16:47.624Z,99532.72
2023-07-02T03:19:17.089Z,99528.75
2023-07-02T03:21:46.742Z,99528.75
2023-07-02T03:24:14.592Z,99524.38
2023-07-02T03:26:42.646Z,99532.94
2023-07-02T03:29:11.074Z,99531.09
2023-07-02T03:31:38.848Z,99525.28
2023-07-02T03:34:11.355Z,99522.41
2023-07-02T03:36:39.233Z,99524.03
2023-07-02T03:39:10.488Z,99534.50
2023-07-02T03:41:39.214Z,99527.06
2023-07-02T03:44:07.097Z,99531.16
2023-07-02T03:46:35.296Z,99533.81
2023-07-02T03:49:04.093Z,99534.38
2023-07-02T03:51:32.081Z,99539.72
2023-07-02T03:54:00.161Z,99544.84
2023-07-02T03:56:29.279Z,99536.50
2023-07-02T03:58:57.121Z,99544.50
2023-07-02T04:01:25.114Z,99542.88
2023-07-02T04:03:54.433Z,99556.03
2023-07-02T04:06:22.311Z,99561.81
2023-07-02T04:08:50.352Z,99563.66
2023-07-02T04:11:18.169Z,99578.28
2023-07-02T04:13:47.552Z,99588.41
2023-07-02T04:16:15.465Z,99584.53
2023-07-02T04:18:43.323Z,99585.81
2023-07-02T04:21:11.676Z,99587.47
2023-07-02T04:23:39.472Z,99587.00
2023-07-02T04:26:32.497Z,99590.25
2023-07-02T04:28:57.273Z,99603.84
2023-07-02T04:31:25.484Z,99603.03
2023-07-02T04:33:53.385Z,99605.25
2023-07-02T04:36:21.218Z,99609.13
2023-07-02T04:38:49.154Z,99612.72
2023-07-02T04:41:17.177Z,99611.47
2023-07-02T04:43:46.414Z,99619.69
2023-07-02T04:46:17.594Z,99612.66
2023-07-02T04:48:45.513Z,99617.56
2023-07-02T04:51:13.327Z,99614.78
2023-07-02T04:53:41.305Z,99630.72
2023-07-02T04:56:09.049Z,99625.25
2023-07-02T04:58:36.865Z,99634.31
2023-07-02T05:01:04.702Z,99630.59
2023-07-02T05:03:33.904Z,99628.97
2023-07-02T05:06:01.890Z,99636.53
2023-07-02T05:08:29.670Z,99635.69
2023-07-02T05:10:57.487Z,99638.00
2023-07-02T05:13:25.265Z,99647.72
2023-07-02T05:15:53.675Z,99640.63
2023-07-02T05:18:21.467Z,99640.06
2023-07-02T05:20:50.839Z,99643.94
2023-07-02T05:23:18.813Z,99654.31
2023-07-02T05:25:47.075Z,99645.00
2023-07-02T05:28:14.928Z,99647.59
2023-07-02T05:30:42.643Z,99654.50
2023-07-02T05:33:11.429Z,99653.31
2023-07-02T05:35:39.146Z,99656.53
2023-07-02T05:38:08.526Z,99653.03
2023-07-02T05:40:36.278Z,99662.47
2023-07-02T05:43:04.251Z,99658.41
2023-07-02T05:45:32.711Z,99665.72
2023-07-02T05:48:01.007Z,99670.69
2023-07-02T05:50:28.839Z,99673.84
2023-07-02T05:52:56.599Z,99679.31
2023-07-02T05:55:25.769Z,99682.34
2023-07-02T05:57:53.538Z,99678.09
2023-07-02T06:00:21.617Z,99687.13
2023-07-02T06:02:49.838Z,99689.59
2023-07-02T06:05:17.871Z,99691.47
2023-07-02T06:07:45.697Z,99702.44
2023-07-02T06:10:13.649Z,99697.13
2023-07-02T06:12:44.275Z,99698.94
2023-07-02T06:15:12.894Z,99697.13
2023-07-02T06:17:40.795Z,99707.88
2023-07-02T06:20:09.765Z,99690.41
2023-07-02T06:22:37.600Z,99699.50
2023-07-02T06:25:06.344Z,99700.94
2023-07-02T06:27:34.090Z,99692.81
2023-07-02T06:30:03.506Z,99701.44
2023-07-02T06:32:31.564Z,99693.72
2023-07-02T06:34:59.604Z,99686.56
2023-07-02T06:37:27.418Z,99688.97
2023-07-02T06:39:55.162Z,99698.28
2023-07-02T06:42:22.948Z,99695.19
2023-07-02T06:44:50.724Z,99694.50
2023-07-02T06:47:21.680Z,99703.25
2023-07-02T06:49:49.769Z,99706.56
2023-07-02T06:52:17.593Z,99708.25
2023-07-02T06:54:45.361Z,99710.22
2023-07-02T06:57:13.190Z,99709.88
2023-07-02T06:59:41.047Z,99713.56
2023-07-02T07:02:09.222Z,99718.50
2023-07-02T07:04:38.724Z,99712.00
2023-07-02T07:07:07.065Z,99710.09
2023-07-02T07:09:34.851Z,99722.00
2023-07-02T07:12:02.866Z,99719.22
2023-07-02T07:14:30.626Z,99727.53
2023-07-02T07:16:58.724Z,99724.13
2023-07-02T07:19:26.577Z,99723.75
2023-07-02T07:21:55.707Z,99728.53
2023-07-02T07:24:23.596Z,99725.38
2023-07-02T07:26:51.386Z,99735.66
2023-07-02T07:29:19.160Z,99730.13
2023-07-02T07:31:47.152Z,99745.88
2023-07-02T07:34:14.974Z,99743.81
2023-07-02T07:36:42.820Z,99741.50
2023-07-02T07:39:11.925Z,99741.13
2023-07-02T07:41:39.661Z,99738.28
2023-07-02T07:44:07.495Z,99736.59
2023-07-02T07:46:35.379Z,99744.94
2023-07-02T07:49:03.775Z,99747.56
2023-07-02T07:51:31.549Z,99744.81
2023-07-02T07:53:59.371Z,99742.84
2023-07-02T07:56:28.531Z,99739.78
2023-07-02T07:58:56.544Z,99749.53
2023-07-02T08:01:24.653Z,99754.91
2023-07-02T08:03:52.469Z,99749.22
2023-07-02T08:06:20.320Z,99750.19
2023-07-02T08:08:48.207Z,99755.22
2023-07-02T08:11:16.116Z,99757.00
2023-07-02T08:13:46.116Z,99765.81
2023-07-02T08:16:14.419Z,99763.50
2023-07-02T08:18:42.492Z,99762.16
2023-07-02T08:21:10.271Z,99759.78
2023-07-02T08:23:38.221Z,99759.94
2023-07-02T08:26:05.998Z,99775.78
2023-07-02T08:28:33.795Z,99778.00
2023-07-02T08:31:03.133Z,99781.16
2023-07-02T08:33:31.060Z,99773.34
2023-07-02T08:35:59.239Z,99778.00
2023-07-02T08:38:27.096Z,99782.78
2023-07-02T08:40:54.883Z,99778.31
2023-07-02T08:43:23.786Z,99789.25
2023-07-02T08:45:51.861Z,99784.69
2023-07-02T08:48:23.467Z,99785.81
2023-07-02T08:50:52.245Z,99790.38
2023-07-02T08:53:21.063Z,99789.50
2023-07-02T08:55:50.300Z,99798.19
2023-07-02T08:58:18.241Z,99797.59
2023-07-02T09:01:07.203Z,99802.50
2023-07-02T09:03:38.255Z,99807.63
2023-07-02T09:06:06.827Z,99809.75
2023-07-02T09:08:35.818Z,99810.66
2023-07-02T09:11:08.563Z,99820.44
2023-07-02T09:13:47.446Z,99810.25
2023-07-02T09:16:29.756Z,99818.28
2023-07-02T09:19:00.620Z,99808.63
2023-07-02T09:21:29.846Z,99809.13
2023-07-02T09:23:58.045Z,99821.31
2023-07-02T09:26:26.090Z,99812.25
2023-07-02T09:29:03.030Z,99820.78
2023-07-02T09:31:30.883Z,99813.66
2023-07-02T09:34:04.872Z,99823.72
2023-07-02T09:36:34.998Z,99830.78
2023-07-02T09:39:03.172Z,99829.13
2023-07-02T09:41:30.948Z,99834.84
2023-07-02T09:43:59.121Z,99831.72
2023-07-02T09:46:26.986Z,99820.81
2023-07-02T09:48:55.497Z,99819.50
2023-07-02T09:51:26.379Z,99814.03
2023-07-02T09:53:54.161Z,99818.63
2023-07-02T09:56:22.550Z,99834.84
2023-07-02T09:58:50.612Z,99834.41
2023-07-02T10:01:18.559Z,99832.34
2023-07-02T10:03:46.317Z,99844.38
2023-07-02T10:06:14.111Z,99845.91
2023-07-02T10:08:53.996Z,99855.50
2023-07-02T10:11:21.818Z,99855.53
2023-07-02T10:13:59.869Z,99853.25
2023-07-02T10:16:28.662Z,99859.34
2023-07-02T10:18:56.402Z,99859.44
2023-07-02T10:21:24.386Z,99857.88
2023-07-02T10:23:53.504Z,99855.31
2023-07-02T10:26:21.718Z,99865.69
2023-07-02T10:28:59.720Z,99860.25
2023-07-02T10:31:28.357Z,99858.66
2023-07-02T10:33:56.281Z,99862.69
2023-07-02T10:36:25.498Z,99868.31
2023-07-02T10:38:54.709Z,99855.38
2023-07-02T10:41:27.410Z,99856.50
2023-07-02T10:43:55.155Z,99853.78
2023-07-02T10:46:23.752Z,99853.44
2023-07-02T10:48:55.030Z,99844.78
2023-07-02T10:51:23.525Z,99844.25
2023-07-02T10:54:00.947Z,99837.69
2023-07-02T10:56:29.428Z,99843.38
2023-07-02T10:58:57.660Z,99851.03
2023-07-02T11:01:27.245Z,99852.91
2023-07-02T11:03:59.951Z,99851.34
2023-07-02T11:06:28.309Z,99846.50
2023-07-02T11:08:57.042Z,99839.09
2023-07-02T11:11:26.374Z,99850.13
2023-07-02T11:13:55.261Z,99841.91
2023-07-02T11:16:26.510Z,99841.41
2023-07-02T11:18:55.622Z,99839.22
2023-07-02T11:21:23.640Z,99848.78
2023-07-02T11:23:51.376Z,99861.28
2023-07-02T11:26:19.122Z,99867.50
2023-07-02T11:28:52.669Z,99856.91
2023-07-02T11:31:27.977Z,99849.81
2023-07-02T11:33:58.990Z,99850.78
2023-07-02T11:36:26.931Z,99847.31
2023-07-02T11:38:57.462Z,99850.28
2023-07-02T11:41:25.284Z,99851.59
2023-07-02T11:43:54.346Z,99858.22
2023-07-02T11:46:22.176Z,99857.97
2023-07-02T11:48:49.949Z,99856.94
2023-07-02T11:51:17.731Z,99860.53
2023-07-02T11:53:45.422Z,99860.56
2023-07-02T11:56:14.207Z,99852.69
2023-07-02T11:58:44.176Z,99853.44
2023-07-02T12:01:13.343Z,99854.19
2023-07-02T12:03:41.353Z,99851.69
2023-07-02T12:06:09.158Z,99854.19
2023-07-02T12:08:37.072Z,99859.72
2023-07-02T12:11:04.898Z,99863.47
2023-07-02T12:13:32.873Z,99859.41
2023-07-02T12:16:00.705Z,99849.28
2023-07-02T12:18:29.787Z,99860.41
2023-07-02T12:20:57.561Z,99874.38
2023-07-02T12:23:25.398Z,99868.81
2023-07-02T12:25:53.120Z,99870.97
2023-07-02T12:28:20.946Z,99877.50
2023-07-02T12:30:48.703Z,99873.16
2023-07-02T12:33:19.086Z,99865.50
2023-07-02T12:35:49.456Z,99869.00
2023-07-02T12:38:17.433Z,99866.75
2023-07-02T12:40:45.202Z,99869.16
2023-07-02T12:43:12.966Z,99875.81
2023-07-02T12:45:40.675Z,99876.75
2023-07-02T12:48:08.504Z,99863.63
2023-07-02T12:50:36.365Z,99872.34
2023-07-02T12:53:05.453Z,99870.69
2023-07-02T12:55:33.397Z,99879.94
2023-07-02T12:58:01.133Z,99880.59
2023-07-02T13:00:28.932Z,99891.28
2023-07-02T13:03:04.979Z,99886.50
2023-07-02T13:05:34.051Z,99884.44
2023-07-02T13:08:01.923Z,99888.19
2023-07-02T13:10:31.118Z,99888.84
2023-07-02T13:13:03.715Z,99890.22
2023-07-02T13:15:38.031Z,99878.59
2023-07-02T13:18:05.842Z,99876.25
2023-07-02T13:20:33.580Z,99895.97
2023-07-02T13:23:01.571Z,99887.88
2023-07-02T13:25:29.317Z,99895.88
2023-07-02T13:27:58.433Z,99902.84
2023-07-02T13:30:28.270Z,99887.19
2023-07-02T13:32:56.261Z,99897.28
2023-07-02T13:35:24.100Z,99897.72
2023-07-02T13:37:51.976Z,99892.88
2023-07-02T13:40:19.758Z,99904.81
2023-07-02T13:42:47.714Z,99898.16
2023-07-02T13:45:16.856Z,99906.00
2023-07-02T13:47:44.643Z,99897.00
2023-07-02T13:50:12.912Z,99903.03
2023-07-02T13:52:40.765Z,99900.34
2023-07-02T13:55:09.224Z,99904.38
2023-07-02T13:57:36.972Z,99913.22
2023-07-02T14:00:07.998Z,99903.50
2023-07-02T14:02:37.102Z,99907.34
2023-07-02T14:05:05.571Z,99916.03
2023-07-02T14:07:33.392Z,99908.91
2023-07-02T14:10:01.185Z,99899.59
2023-07-02T14:12:29.438Z,99901.25
2023-07-02T14:14:57.197Z,99908.88
2023-07-02T14:17:27.157Z,99906.69
2023-07-02T14:19:55.181Z,99902.09
2023-07-02T14:22:22.967Z,99903.13
2023-07-02T14:24:51.002Z,99918.34
2023-07-02T14:27:18.931Z,99919.00
2023-07-02T14:29:48.384Z,99911.41
2023-07-02T14:32:16.774Z,99889.94
2023-07-02T14:34:45.980Z,99909.28
2023-07-02T14:37:13.896Z,99897.97
2023-07-02T14:39:43.730Z,99896.97
2023-07-02T14:42:16.007Z,99909.97
2023-07-02T14:44:43.730Z,99906.25
2023-07-02T14:47:11.516Z,99907.88
2023-07-02T14:49:39.626Z,99900.47
2023-07-02T14:52:09.144Z,99888.56
2023-07-02T14:54:36.972Z,99893.81
2023-07-02T14:57:05.430Z,99895.25
2023-07-02T14:59:33.350Z,99890.13
2023-07-02T15:02:01.098Z,99900.38
2023-07-02T15:04:30.704Z,99902.97
2023-07-02T15:06:58.590Z,99887.44
2023-07-02T15:09:27.821Z,99892.22
2023-07-02T15:11:55.639Z,99890.00
2023-07-02T15:14:23.535Z,99897.66
2023-07-02T15:16:52.293Z,99905.28
2023-07-02T15:19:20.163Z,99896.19
2023-07-02T15:21:48.027Z,99883.63
2023-07-02T15:24:16.974Z,99891.88
2023-07-02T15:26:46.175Z,99883.50
2023-07-02T15:29:13.946Z,99898.88
2023-07-02T15:31:43.382Z,99879.13
2023-07-02T15:34:11.097Z,99896.59
2023-07-02T15:36:38.955Z,99880.47
2023-07-02T15:39:07.272Z,99896.22
2023-07-02T15:41:37.541Z,99890.09
2023-07-02T15:44:07.246Z,99893.84
2023-07-02T15:46:35.801Z,99893.66
2023-07-02T15:49:03.771Z,99891.22
2023-07-02T15:51:34.674Z,99891.88
2023-07-02T15:54:03.524Z,99890.75
2023-07-02T15:56:33.363Z,99893.97
2023-07-02T15:59:01.311Z,99894.88
2023-07-02T16:01:35.240Z,99892.00
2023-07-02T16:04:05.534Z,99903.34
2023-07-02T16:06:35.215Z,99891.84
2023-07-02T16:09:03.331Z,99896.19
2023-07-02T16:11:35.621Z,99893.44
2023-07-02T16:14:08.779Z,99899.34
2023-07-02T16:16:41.221Z,99896.03
2023-07-02T16:19:10.040Z,99908.34
2023-07-02T16:21:41.409Z,99897.06
2023-07-02T16:24:11.878Z,99895.41
2023-07-02T16:26:39.670Z,99896.09
2023-07-02T16:29:07.451Z,99894.53
2023-07-02T16:31:37.020Z,99885.78
2023-07-02T16:34:09.017Z,99889.25
2023-07-02T16:36:36.983Z,99884.72
2023-07-02T16:39:04.928Z,99885.16
2023-07-02T16:41:36.834Z,99885.97
2023-07-02T16:44:04.785Z,99886.78
2023-07-02T16:46:32.600Z,99888.09
2023-07-02T16:49:01.575Z,99882.22
2023-07-02T16:51:30.764Z,99894.53
2023-07-02T16:53:58.582Z,99889.75
2023-07-02T16:56:26.339Z,99893.09
2023-07-02T16:58:54.112Z,99888.66
2023-07-02T17:01:21.983Z,99895.94
2023-07-02T17:03:50.156Z,99891.56
2023-07-02T17:06:19.374Z,99894.53
2023-07-02T17:08:48.518Z,99898.28
2023-07-02T17:11:16.307Z,99894.44
2023-07-02T17:13:44.121Z,99892.56
2023-07-02T17:16:11.918Z,99892.78
2023-07-02T17:18:39.644Z,99898.38
2023-07-02T17:21:07.551Z,99892.56
2023-07-02T17:23:35.402Z,99894.38
2023-07-02T17:26:07.502Z,99892.75
2023-07-02T17:28:35.730Z,99892.47
2023-07-02T17:31:04.592Z,99887.63
2023-07-02T17:33:32.577Z,99885.41
2023-07-02T17:36:00.500Z,99891.13
2023-07-02T17:38:28.267Z,99888.63
2023-07-02T17:40:56.064Z,99889.94
2023-07-02T17:43:25.305Z,99884.75
2023-07-02T17:45:56.644Z,99888.84
2023-07-02T17:48:26.597Z,99889.66
2023-07-02T17:50:58.981Z,99893.78
2023-07-02T17:53:28.622Z,99889.31
2023-07-02T17:55:56.626Z,99890.81
2023-07-02T17:58:25.953Z,99886.63
2023-07-02T18:00:54.082Z,99888.66
2023-07-02T18:03:23.327Z,99893.81
2023-07-02T18:05:51.807Z,99885.25
2023-07-02T18:08:19.829Z,99888.06
2023-07-02T18:10:50.158Z,99887.06
2023-07-02T18:13:21.080Z,99888.78
2023-07-02T18:15:52.371Z,99905.50
2023-07-02T18:18:21.233Z,99897.19
2023-07-02T18:20:50.544Z,99901.78
2023-07-02T18:23:18.444Z,99898.88
2023-07-02T18:25:46.477Z,99900.91
2023-07-02T18:28:15.907Z,99903.09
2023-07-02T18:30:44.865Z,99905.34
2023-07-02T18:33:14.832Z,99901.28
2023-07-02T18:35:43.586Z,99902.41
2023-07-02T18:38:12.118Z,99904.06
2023-07-02T18:40:40.102Z,99905.97
2023-07-02T18:43:08.038Z,99907.84
2023-07-02T18:45:35.885Z,99906.34
2023-07-02T18:48:04.663Z,99906.38
2023-07-02T18:50:33.765Z,99906.53
2023-07-02T18:53:02.096Z,99906.88
2023-07-02T18:55:29.940Z,99900.00
2023-07-02T18:57:58.264Z,99906.72
2023-07-02T19:00:26.049Z,99906.53
2023-07-02T19:02:54.266Z,99908.13
2023-07-02T19:05:24.964Z,99919.41
2023-07-02T19:07:54.663Z,99913.94
2023-07-02T19:10:22.800Z,99916.03
2023-07-02T19:12:50.582Z,99907.06
2023-07-02T19:15:18.292Z,99905.09
2023-07-02T19:17:46.184Z,99905.75
2023-07-02T19:20:16.953Z,99906.47
2023-07-02T19:22:44.800Z,99905.53
2023-07-02T19:25:14.470Z,99905.16
2023-07-02T19:27:42.630Z,99902.13
2023-07-02T19:30:10.921Z,99909.78
2023-07-02T19:32:38.759Z,99906.50
2023-07-02T19:35:08.554Z,99902.91
2023-07-02T19:37:36.603Z,99899.28
2023-07-02T19:40:05.111Z,99904.44
2023-07-02T19:42:34.630Z,99904.78
2023-07-02T19:45:02.908Z,99903.25
2023-07-02T19:47:32.271Z,99901.47
2023-07-02T19:50:01.810Z,99906.09
2023-07-02T19:52:31.955Z,99910.25
2023-07-02T19:55:02.606Z,99906.03
2023-07-02T19:57:30.687Z,99911.25
2023-07-02T20:00:01.716Z,99912.13
2023-07-02T20:02:29.891Z,99907.91
2023-07-02T20:04:59.449Z,99912.28
2023-07-02T20:07:28.827Z,99910.50
2023-07-02T20:09:57.253Z,99909.78
2023-07-02T20:12:29.096Z,99916.00
2023-07-02T20:14:59.458Z,99916.66
2023-07-02T20:17:27.993Z,99920.59
2023-07-02T20:19:56.561Z,99913.84
2023-07-02T20:22:24.954Z,99916.72
2023-07-02T20:24:53.084Z,99919.41
2023-07-02T20:27:21.981Z,99909.72
2023-07-02T20:29:51.034Z,99921.47
2023-07-02T20:32:21.522Z,99911.81
2023-07-02T20:34:50.176Z,99911.81
2023-07-02T20:37:18.188Z,99912.63
2023-07-02T20:39:46.280Z,99918.59
2023-07-02T20:42:14.106Z,99907.88
2023-07-02T20:44:41.818Z,99909.72
2023-07-02T20:47:10.307Z,99909.72
2023-07-02T20:49:39.591Z,99908.09
2023-07-02T20:52:08.071Z,99901.94
2023-07-02T20:54:36.192Z,99907.28
2023-07-02T20:57:04.223Z,99904.38
2023-07-02T20:59:31.967Z,99907.88
2023-07-02T21:01:59.725Z,99903.38
2023-07-02T21:04:27.499Z,99906.84
2023-07-02T21:06:56.666Z,99912.59
2023-07-02T21:09:25.360Z,99916.66
2023-07-02T21:11:53.086Z,99913.56
2023-07-02T21:14:20.798Z,99906.13
2023-07-02T21:16:50.173Z,99918.69
2023-07-02T21:19:18.008Z,99907.16
2023-07-02T21:21:47.097Z,99913.56
2023-07-02T21:24:17.241Z,99914.38
2023-07-02T21:26:45.382Z,99914.38
2023-07-02T21:29:13.373Z,99905.53
2023-07-02T21:31:41.142Z,99914.38
2023-07-02T21:34:08.903Z,99918.69
2023-07-02T21:36:37.545Z,99912.09
2023-07-02T21:39:05.390Z,99912.09
2023-07-02T21:41:36.392Z,99905.91
2023-07-02T21:44:04.189Z,99910.19
2023-07-02T21:46:32.390Z,99911.03
2023-07-02T21:49:00.163Z,99913.47
2023-07-02T21:51:27.899Z,99912.66
2023-07-02T21:53:55.791Z,99909.97
2023-07-02T21:56:23.671Z,99915.34
2023-07-02T21:58:52.751Z,99918.22
2023-07-02T22:01:20.582Z,99919.03
2023-07-02T22:03:48.349Z,99912.88
2023-07-02T22:06:16.034Z,99908.59
2023-07-02T22:08:43.774Z,99903.69
2023-07-02T22:11:23.197Z,99900.63
2023-07-02T22:13:53.420Z,99893.88
2023-07-02T22:16:21.900Z,99893.28
2023-07-02T22:18:51.773Z,99898.63
2023-07-02T22:21:19.844Z,99893.28
2023-07-02T22:23:49.142Z,99894.09
2023-07-02T22:26:17.069Z,99902.94
2023-07-02T22:28:44.912Z,99896.56
2023-07-02T22:31:14.087Z,99899.00
2023-07-02T22:33:41.811Z,99894.47
2023-07-02T22:36:09.896Z,99899.59
2023-07-02T22:38:37.722Z,99895.06
2023-07-02T22:41:05.682Z,99892.03
2023-07-02T22:43:33.477Z,99882.78
2023-07-02T22:46:01.254Z,99879.13
2023-07-02T22:48:30.480Z,99880.84
2023-07-02T22:50:58.922Z,99879.06
2023-07-02T22:53:26.833Z,99891.41
2023-07-02T22:55:54.734Z,99883.88
2023-07-02T22:58:22.591Z,99887.13
2023-07-02T23:00:52.154Z,99883.41
2023-07-02T23:03:20.219Z,99874.97
2023-07-02T23:05:49.737Z,99871.47
2023-07-02T23:08:17.760Z,99870.88
2023-07-02T23:10:45.880Z,99865.38
2023-07-02T23:13:13.681Z,99873.25
2023-07-02T23:15:41.456Z,99857.84
2023-07-02T23:18:09.485Z,99857.84
2023-07-02T23:20:38.067Z,99862.38
2023-07-02T23:23:07.990Z,99854.38
2023-07-02T23:25:36.216Z,99867.28
2023-07-02T23:28:04.558Z,99869.53
2023-07-02T23:30:35.713Z,99859.22
2023-07-02T23:33:06.603Z,99858.19
2023-07-02T23:35:35.197Z,99844.59
2023-07-02T23:38:04.852Z,99851.81
2023-07-02T23:40:35.659Z,99853.50
2023-07-02T23:43:04.028Z,99856.47
2023-07-02T23:45:31.986Z,99847.09
2023-07-02T23:47:59.918Z,99836.69
2023-07-02T23:50:28.142Z,99843.94
2023-07-02T23:52:56.048Z,99839.91
2023-07-02T23:55:23.975Z,99840.38
2023-07-02T23:57:53.097Z,99825.03
